createdAt,value
2018-02-21T00:00:12.081Z,98.71
2018-02-21T00:01:12.060Z,98.8
2018-02-21T00:02:12.042Z,98.99
2018-02-21T00:03:12.023Z,98.8
2018-02-21T00:04:12.008Z,98.99
2018-02-21T00:05:11.997Z,98.99
2018-02-21T00:06:11.987Z,98.61
2018-02-21T00:07:11.954Z,98.52
2018-02-21T00:08:11.939Z,98.33
2018-02-21T00:09:11.919Z,98.8
2018-02-21T00:10:11.900Z,99.27
2018-02-21T00:11:11.896Z,98.8
2018-02-21T00:12:11.862Z,99.46
2018-02-21T00:13:11.843Z,99.56
2018-02-21T00:14:11.573Z,99.56
2018-02-21T00:15:11.813Z,98.9
2018-02-21T00:16:11.790Z,99.08
2018-02-21T00:17:11.774Z,98.99
2018-02-21T00:18:11.755Z,99.08
2018-02-21T00:19:11.740Z,98.8
2018-02-21T00:20:11.723Z,99.18
2018-02-21T00:21:11.703Z,99.18
2018-02-21T00:22:11.690Z,99.08
2018-02-21T00:23:11.667Z,98.99
2018-02-21T00:24:11.917Z,98.99
2018-02-21T00:25:11.691Z,98.52
2018-02-21T00:26:11.356Z,98.9
2018-02-21T00:27:11.592Z,98.8
2018-02-21T00:28:11.576Z,98.9
2018-02-21T00:29:11.567Z,98.8
2018-02-21T00:30:11.543Z,98.71
2018-02-21T00:31:11.524Z,98.9
2018-02-21T00:32:11.254Z,98.8
2018-02-21T00:33:11.484Z,98.99
2018-02-21T00:34:11.469Z,98.99
2018-02-21T00:35:11.452Z,98.8
2018-02-21T00:36:11.434Z,98.52
2018-02-21T00:37:11.413Z,98.9
2018-02-21T00:38:11.160Z,99.18
2018-02-21T00:39:11.188Z,99.08
2018-02-21T00:40:11.363Z,98.9
2018-02-21T00:41:11.352Z,99.08
2018-02-21T00:42:11.329Z,98.99
2018-02-21T00:43:11.311Z,98.99
2018-02-21T00:44:11.296Z,98.8
2018-02-21T00:45:11.275Z,98.9
2018-02-21T00:46:10.998Z,99.37
2018-02-21T00:47:11.245Z,98.99
2018-02-21T00:48:11.221Z,99.08
2018-02-21T00:49:11.507Z,98.9
2018-02-21T00:50:11.183Z,98.99
2018-02-21T00:51:11.163Z,99.37
2018-02-21T00:52:11.217Z,99.46
2018-02-21T00:53:11.126Z,99.46
2018-02-21T00:54:11.108Z,99.46
2018-02-21T00:55:11.090Z,99.08
2018-02-21T00:56:10.819Z,99.18
2018-02-21T00:57:11.053Z,99.27
2018-02-21T00:58:11.040Z,99.08
2018-02-21T00:59:11.018Z,99.84
2018-02-21T01:00:11.004Z,98.99
2018-02-21T01:01:10.988Z,98.99
2018-02-21T01:02:10.969Z,99.84
2018-02-21T01:03:10.948Z,99.56
2018-02-21T01:04:10.929Z,99.75
2018-02-21T01:05:10.915Z,99.37
2018-02-21T01:06:10.895Z,99.94
2018-02-21T01:07:10.876Z,99.75
2018-02-21T01:08:10.861Z,99.75
2018-02-21T01:09:10.841Z,99.94
2018-02-21T01:10:10.826Z,99.75
2018-02-21T01:11:10.800Z,99.75
2018-02-21T01:12:10.788Z,99.94
2018-02-21T01:13:10.766Z,99.94
2018-02-21T01:14:10.749Z,99.94
2018-02-21T01:15:10.731Z,99.84
2018-02-21T01:16:10.718Z,99.75
2018-02-21T01:17:10.695Z,99.84
2018-02-21T01:18:10.677Z,99.84
2018-02-21T01:19:10.657Z,99.56
2018-02-21T01:20:10.644Z,99.84
2018-02-21T01:21:10.622Z,99.84
2018-02-21T01:22:10.609Z,99.84
2018-02-21T01:23:10.589Z,99.56
2018-02-21T01:24:10.315Z,99.99
2018-02-21T01:25:10.551Z,99.56
2018-02-21T01:26:10.533Z,99.56
2018-02-21T01:27:10.516Z,99.99
2018-02-21T01:28:10.244Z,99.56
2018-02-21T01:29:10.486Z,99.99
2018-02-21T01:30:10.459Z,99.99
2018-02-21T01:31:10.443Z,99.99
2018-02-21T01:32:10.423Z,99.94
2018-02-21T01:33:10.422Z,99.99
2018-02-21T01:34:10.388Z,99.94
2018-02-21T01:35:10.374Z,99.84
2018-02-21T01:36:10.099Z,99.94
2018-02-21T01:37:10.335Z,99.94
2018-02-21T01:38:10.315Z,99.99
2018-02-21T01:39:10.300Z,99.99
2018-02-21T01:40:10.282Z,99.99
2018-02-21T01:41:10.264Z,99.94
2018-02-21T01:42:09.990Z,99.99
2018-02-21T01:43:10.225Z,99.99
2018-02-21T01:44:09.953Z,99.99
2018-02-21T01:45:10.195Z,99.99
2018-02-21T01:46:10.173Z,99.99
2018-02-21T01:47:10.159Z,99.99
2018-02-21T01:48:10.140Z,99.99
2018-02-21T01:49:10.118Z,99.99
2018-02-21T01:50:10.096Z,99.99
2018-02-21T01:51:10.081Z,99.99
2018-02-21T01:52:10.061Z,99.99
2018-02-21T01:53:10.047Z,99.99
2018-02-21T01:54:10.025Z,99.99
2018-02-21T01:55:09.753Z,99.84
2018-02-21T01:56:09.993Z,99.99
2018-02-21T01:57:09.978Z,99.99
2018-02-21T01:58:09.953Z,99.99
2018-02-21T01:59:09.938Z,99.99
2018-02-21T02:00:09.918Z,99.99
2018-02-21T02:01:09.899Z,99.84
2018-02-21T02:02:09.885Z,99.99
2018-02-21T02:03:09.867Z,99.99
2018-02-21T02:04:09.845Z,99.99
2018-02-21T02:05:09.829Z,99.99
2018-02-21T02:06:09.808Z,99.99
2018-02-21T02:07:09.796Z,99.94
2018-02-21T02:08:09.774Z,99.99
2018-02-21T02:09:09.758Z,99.84
2018-02-21T02:10:09.483Z,99.99
2018-02-21T02:11:09.468Z,99.99
2018-02-21T02:12:09.447Z,99.99
2018-02-21T02:13:09.685Z,99.99
2018-02-21T02:14:09.662Z,99.99
2018-02-21T02:15:09.650Z,99.99
2018-02-21T02:16:09.630Z,99.99
2018-02-21T02:17:09.613Z,99.99
2018-02-21T02:18:09.338Z,99.99
2018-02-21T02:19:09.576Z,99.99
2018-02-21T02:20:09.556Z,99.99
2018-02-21T02:21:09.539Z,99.99
2018-02-21T02:22:09.524Z,99.99
2018-02-21T02:23:09.506Z,99.99
2018-02-21T02:24:09.489Z,99.99
2018-02-21T02:25:09.468Z,99.99
2018-02-21T02:26:09.452Z,99.99
2018-02-21T02:27:09.430Z,99.99
2018-02-21T02:28:09.410Z,99.99
2018-02-21T02:29:09.398Z,99.99
2018-02-21T02:30:09.376Z,99.99
2018-02-21T02:31:09.357Z,99.99
2018-02-21T02:32:09.337Z,99.99
2018-02-21T02:33:09.321Z,99.99
2018-02-21T02:34:09.305Z,99.99
2018-02-21T02:35:09.286Z,99.99
2018-02-21T02:36:09.274Z,99.99
2018-02-21T02:37:09.252Z,99.99
2018-02-21T02:38:09.235Z,99.99
2018-02-21T02:39:09.210Z,99.99
2018-02-21T02:40:09.197Z,99.99
2018-02-21T02:41:09.178Z,99.99
2018-02-21T02:42:09.165Z,99.99
2018-02-21T02:43:09.142Z,99.99
2018-02-21T02:44:09.134Z,99.99
2018-02-21T02:45:09.114Z,99.99
2018-02-21T02:46:09.086Z,99.99
2018-02-21T02:47:09.072Z,99.99
2018-02-21T02:48:09.065Z,99.99
2018-02-21T02:49:09.033Z,99.99
2018-02-21T02:50:08.759Z,99.99
2018-02-21T02:51:08.739Z,99.99
2018-02-21T02:52:08.976Z,99.99
2018-02-21T02:53:08.968Z,99.99
2018-02-21T02:54:08.951Z,99.99
2018-02-21T02:55:08.924Z,99.99
2018-02-21T02:56:08.902Z,99.99
2018-02-21T02:57:08.886Z,99.99
2018-02-21T02:58:08.868Z,99.99
2018-02-21T02:59:08.850Z,99.99
2018-02-21T03:00:08.833Z,99.99
2018-02-21T03:01:08.826Z,99.99
2018-02-21T03:02:08.799Z,99.99
2018-02-21T03:03:08.781Z,99.99
2018-02-21T03:04:08.765Z,99.99
2018-02-21T03:05:08.745Z,99.99
2018-02-21T03:06:08.725Z,99.99
2018-02-21T03:07:08.448Z,99.99
2018-02-21T03:08:08.690Z,99.99
2018-02-21T03:09:08.666Z,99.99
2018-02-21T03:10:08.652Z,99.99
2018-02-21T03:11:08.629Z,99.99
2018-02-21T03:12:08.363Z,99.99
2018-02-21T03:13:08.592Z,99.99
2018-02-21T03:14:08.578Z,99.99
2018-02-21T03:15:08.557Z,99.99
2018-02-21T03:16:08.286Z,99.99
2018-02-21T03:17:08.524Z,99.99
2018-02-21T03:18:08.246Z,99.99
2018-02-21T03:19:08.485Z,99.99
2018-02-21T03:20:08.465Z,99.99
2018-02-21T03:21:08.450Z,99.99
2018-02-21T03:22:08.438Z,99.99
2018-02-21T03:23:08.412Z,99.99
2018-02-21T03:24:08.141Z,99.99
2018-02-21T03:25:08.379Z,99.99
2018-02-21T03:26:08.360Z,99.99
2018-02-21T03:27:08.085Z,99.99
2018-02-21T03:28:08.324Z,99.99
2018-02-21T03:29:08.306Z,99.99
2018-02-21T03:30:08.291Z,99.99
2018-02-21T03:31:08.268Z,99.99
2018-02-21T03:32:08.248Z,99.99
2018-02-21T03:33:07.975Z,99.99
2018-02-21T03:34:07.962Z,99.99
2018-02-21T03:35:08.196Z,99.99
2018-02-21T03:36:08.175Z,99.99
2018-02-21T03:37:08.159Z,99.99
2018-02-21T03:38:08.141Z,99.99
2018-02-21T03:39:08.120Z,99.99
2018-02-21T03:40:08.100Z,99.99
2018-02-21T03:41:08.088Z,99.99
2018-02-21T03:42:08.065Z,99.99
2018-02-21T03:43:08.055Z,99.99
2018-02-21T03:44:08.031Z,99.99
2018-02-21T03:45:08.016Z,99.99
2018-02-21T03:46:07.738Z,99.99
2018-02-21T03:47:07.977Z,99.99
2018-02-21T03:48:07.954Z,99.99
2018-02-21T03:49:07.944Z,99.99
2018-02-21T03:50:07.925Z,99.99
2018-02-21T03:51:07.902Z,99.99
2018-02-21T03:52:07.885Z,99.99
2018-02-21T03:53:07.871Z,99.99
2018-02-21T03:54:07.844Z,99.99
2018-02-21T03:55:07.835Z,99.99
2018-02-21T03:56:07.812Z,99.99
2018-02-21T03:57:07.793Z,99.99
2018-02-21T03:58:07.772Z,99.99
2018-02-21T03:59:07.765Z,99.99
2018-02-21T04:00:07.763Z,99.99
2018-02-21T04:01:07.717Z,99.99
2018-02-21T04:02:07.708Z,99.99
2018-02-21T04:03:07.682Z,99.99
2018-02-21T04:04:07.665Z,99.99
2018-02-21T04:05:07.646Z,99.99
2018-02-21T04:06:07.628Z,99.99
2018-02-21T04:07:07.610Z,99.99
2018-02-21T04:08:07.596Z,99.99
2018-02-21T04:09:07.574Z,99.99
2018-02-21T04:10:07.553Z,99.99
2018-02-21T04:11:07.536Z,99.99
2018-02-21T04:12:07.521Z,99.99
2018-02-21T04:13:07.504Z,99.99
2018-02-21T04:14:07.232Z,99.99
2018-02-21T04:15:07.463Z,99.99
2018-02-21T04:16:07.447Z,99.99
2018-02-21T04:17:07.431Z,99.99
2018-02-21T04:18:07.414Z,99.99
2018-02-21T04:19:07.392Z,99.99
2018-02-21T04:20:07.371Z,99.99
2018-02-21T04:21:07.360Z,99.99
2018-02-21T04:22:07.337Z,99.99
2018-02-21T04:23:07.317Z,99.99
2018-02-21T04:24:07.301Z,99.99
2018-02-21T04:25:07.028Z,99.99
2018-02-21T04:26:07.265Z,99.99
2018-02-21T04:27:07.245Z,99.99
2018-02-21T04:28:06.972Z,99.99
2018-02-21T04:29:07.208Z,99.99
2018-02-21T04:30:07.191Z,99.99
2018-02-21T04:31:07.174Z,99.99
2018-02-21T04:32:07.152Z,99.99
2018-02-21T04:33:07.140Z,99.99
2018-02-21T04:34:07.118Z,99.99
2018-02-21T04:35:07.101Z,99.99
2018-02-21T04:36:07.078Z,99.99
2018-02-21T04:37:07.063Z,99.99
2018-02-21T04:38:07.042Z,99.99
2018-02-21T04:39:07.027Z,99.99
2018-02-21T04:40:07.010Z,99.99
2018-02-21T04:41:06.987Z,99.99
2018-02-21T04:42:06.980Z,99.99
2018-02-21T04:43:06.951Z,99.99
2018-02-21T04:44:06.932Z,99.99
2018-02-21T04:45:06.918Z,99.99
2018-02-21T04:46:06.899Z,99.99
2018-02-21T04:47:06.879Z,99.99
2018-02-21T04:48:06.860Z,99.99
2018-02-21T04:49:06.588Z,99.99
2018-02-21T04:50:06.822Z,99.99
2018-02-21T04:51:06.805Z,99.99
2018-02-21T04:52:06.787Z,99.99
2018-02-21T04:53:06.767Z,99.99
2018-02-21T04:54:06.750Z,99.99
2018-02-21T04:55:06.730Z,99.99
2018-02-21T04:56:06.716Z,99.99
2018-02-21T04:57:06.697Z,99.99
2018-02-21T04:58:06.675Z,99.99
2018-02-21T04:59:06.661Z,99.99
2018-02-21T05:00:06.638Z,99.99
2018-02-21T05:01:06.621Z,99.99
2018-02-21T05:02:06.602Z,99.99
2018-02-21T05:03:06.584Z,99.99
2018-02-21T05:04:06.572Z,99.99
2018-02-21T05:05:06.551Z,99.99
2018-02-21T05:06:06.535Z,99.99
2018-02-21T05:07:06.513Z,99.99
2018-02-21T05:08:06.236Z,99.99
2018-02-21T05:09:06.475Z,99.99
2018-02-21T05:10:06.456Z,99.99
2018-02-21T05:11:06.434Z,99.99
2018-02-21T05:12:06.422Z,99.99
2018-02-21T05:13:06.404Z,99.99
2018-02-21T05:14:06.384Z,99.99
2018-02-21T05:15:06.363Z,99.99
2018-02-21T05:16:06.346Z,99.99
2018-02-21T05:17:06.328Z,99.99
2018-02-21T05:18:06.308Z,99.99
2018-02-21T05:19:06.036Z,99.99
2018-02-21T05:20:06.274Z,99.99
2018-02-21T05:21:06.253Z,99.99
2018-02-21T05:22:06.233Z,99.99
2018-02-21T05:23:06.223Z,99.99
2018-02-21T05:24:05.972Z,99.99
2018-02-21T05:25:05.925Z,99.99
2018-02-21T05:26:06.162Z,99.99
2018-02-21T05:27:06.145Z,99.99
2018-02-21T05:28:06.128Z,99.99
2018-02-21T05:29:06.109Z,99.99
2018-02-21T05:30:06.088Z,99.99
2018-02-21T05:31:06.068Z,99.99
2018-02-21T05:32:05.796Z,99.99
2018-02-21T05:33:06.032Z,99.99
2018-02-21T05:34:06.015Z,99.99
2018-02-21T05:35:05.742Z,99.99
2018-02-21T05:36:05.981Z,99.99
2018-02-21T05:37:05.718Z,99.99
2018-02-21T05:38:05.943Z,99.99
2018-02-21T05:39:05.922Z,99.99
2018-02-21T05:40:05.906Z,99.99
2018-02-21T05:41:05.886Z,99.99
2018-02-21T05:42:05.883Z,99.99
2018-02-21T05:43:05.850Z,99.99
2018-02-21T05:44:05.834Z,99.99
2018-02-21T05:45:05.556Z,99.99
2018-02-21T05:46:05.539Z,99.99
2018-02-21T05:47:05.774Z,99.99
2018-02-21T05:48:05.759Z,99.99
2018-02-21T05:49:05.738Z,99.99
2018-02-21T05:50:05.723Z,99.99
2018-02-21T05:51:05.704Z,99.99
2018-02-21T05:52:05.684Z,99.99
2018-02-21T05:53:05.718Z,99.99
2018-02-21T05:54:05.647Z,99.99
2018-02-21T05:55:05.627Z,99.99
2018-02-21T05:56:05.354Z,99.99
2018-02-21T05:57:05.592Z,99.99
2018-02-21T05:58:05.318Z,99.99
2018-02-21T05:59:05.556Z,99.99
2018-02-21T06:00:05.284Z,99.99
2018-02-21T06:01:05.516Z,99.99
2018-02-21T06:02:05.497Z,99.99
2018-02-21T06:03:05.484Z,99.99
2018-02-21T06:04:05.468Z,99.99
2018-02-21T06:05:05.192Z,99.99
2018-02-21T06:06:05.427Z,99.99
2018-02-21T06:07:05.410Z,99.99
2018-02-21T06:08:05.389Z,99.99
2018-02-21T06:09:05.373Z,99.99
2018-02-21T06:10:05.098Z,99.99
2018-02-21T06:11:05.337Z,99.99
2018-02-21T06:12:05.316Z,99.99
2018-02-21T06:13:05.299Z,99.99
2018-02-21T06:14:05.279Z,99.99
2018-02-21T06:15:05.260Z,99.99
2018-02-21T06:16:04.989Z,99.99
2018-02-21T06:17:05.221Z,99.99
2018-02-21T06:18:05.205Z,99.99
2018-02-21T06:19:05.186Z,99.99
2018-02-21T06:20:04.914Z,99.99
2018-02-21T06:21:05.156Z,99.99
2018-02-21T06:22:05.134Z,99.99
2018-02-21T06:23:05.114Z,99.99
2018-02-21T06:24:05.102Z,99.99
2018-02-21T06:25:05.149Z,99.99
2018-02-21T06:26:05.065Z,99.99
2018-02-21T06:27:05.066Z,99.99
2018-02-21T06:28:05.023Z,99.99
2018-02-21T06:29:05.005Z,99.99
2018-02-21T06:30:04.990Z,99.99
2018-02-21T06:31:04.970Z,99.99
2018-02-21T06:32:04.950Z,99.99
2018-02-21T06:33:04.934Z,99.99
2018-02-21T06:34:04.914Z,99.99
2018-02-21T06:35:04.639Z,99.99
2018-02-21T06:36:04.877Z,99.99
2018-02-21T06:37:04.858Z,99.99
2018-02-21T06:38:04.845Z,99.99
2018-02-21T06:39:04.821Z,99.99
2018-02-21T06:40:04.808Z,99.99
2018-02-21T06:41:04.532Z,99.99
2018-02-21T06:42:04.770Z,99.99
2018-02-21T06:43:04.752Z,99.99
2018-02-21T06:44:04.734Z,99.99
2018-02-21T06:45:04.713Z,99.99
2018-02-21T06:46:04.697Z,99.99
2018-02-21T06:47:04.676Z,99.99
2018-02-21T06:48:04.663Z,99.99
2018-02-21T06:49:04.704Z,99.99
2018-02-21T06:50:04.625Z,99.99
2018-02-21T06:51:04.606Z,99.99
2018-02-21T06:52:04.593Z,99.99
2018-02-21T06:53:04.582Z,99.99
2018-02-21T06:54:04.560Z,99.99
2018-02-21T06:55:04.539Z,99.99
2018-02-21T06:56:04.524Z,99.99
2018-02-21T06:57:04.506Z,99.99
2018-02-21T06:58:04.489Z,99.99
2018-02-21T06:59:04.481Z,99.99
2018-02-21T07:00:04.472Z,99.99
2018-02-21T07:01:04.436Z,99.99
2018-02-21T07:02:04.421Z,99.99
2018-02-21T07:03:04.403Z,99.99
2018-02-21T07:04:04.387Z,99.99
2018-02-21T07:05:04.367Z,99.99
2018-02-21T07:06:04.353Z,99.57
2018-02-21T07:07:04.342Z,99.66
2018-02-21T07:08:04.324Z,99.28
2018-02-21T07:09:04.306Z,97.77
2018-02-21T07:10:04.323Z,96.64
2018-02-21T07:11:04.276Z,95.97
2018-02-21T07:12:04.259Z,95.59
2018-02-21T07:13:04.243Z,95.78
2018-02-21T07:14:03.981Z,95.69
2018-02-21T07:15:04.216Z,95.69
2018-02-21T07:16:04.199Z,95.93
2018-02-21T07:17:03.940Z,95.74
2018-02-21T07:18:04.221Z,94.6
2018-02-21T07:19:04.160Z,95.17
2018-02-21T07:20:03.881Z,94.04
2018-02-21T07:21:04.134Z,93.75
2018-02-21T07:22:03.855Z,93.75
2018-02-21T07:23:04.095Z,93.75
2018-02-21T07:24:04.080Z,94.13
2018-02-21T07:25:04.066Z,93.85
2018-02-21T07:26:03.798Z,93.37
2018-02-21T07:27:04.035Z,92.9
2018-02-21T07:28:04.022Z,93.66
2018-02-21T07:29:04.006Z,93.47
2018-02-21T07:30:03.995Z,93.66
2018-02-21T07:31:03.980Z,93.85
2018-02-21T07:32:03.970Z,93.75
2018-02-21T07:33:03.696Z,93.75
2018-02-21T07:34:03.949Z,93.28
2018-02-21T07:35:03.669Z,93.28
2018-02-21T07:36:03.916Z,93.09
2018-02-21T07:37:03.893Z,92.99
2018-02-21T07:38:03.902Z,93.18
2018-02-21T07:39:03.610Z,92.9
2018-02-21T07:40:03.857Z,92.71
2018-02-21T07:41:03.844Z,92.8
2018-02-21T07:42:03.828Z,92.52
2018-02-21T07:43:03.813Z,92.8
2018-02-21T07:44:03.802Z,92.05
2018-02-21T07:45:03.782Z,91.77
2018-02-21T07:46:03.788Z,92.14
2018-02-21T07:47:03.756Z,92.43
2018-02-21T07:48:03.740Z,91.96
2018-02-21T07:49:03.836Z,91.67
2018-02-21T07:50:03.726Z,91.58
2018-02-21T07:51:03.787Z,91.2
2018-02-21T07:52:03.689Z,91.58
2018-02-21T07:53:03.674Z,91.48
2018-02-21T07:54:03.660Z,91.96
2018-02-21T07:55:03.645Z,92.9
2018-02-21T07:56:03.635Z,93.28
2018-02-21T07:57:03.361Z,93.47
2018-02-21T07:58:03.604Z,93.56
2018-02-21T07:59:03.591Z,93.85
2018-02-21T08:00:03.577Z,93.94
2018-02-21T08:01:03.620Z,94.32
2018-02-21T08:02:03.293Z,94.51
2018-02-21T08:03:03.633Z,94.23
2018-02-21T08:04:03.520Z,94.13
2018-02-21T08:05:03.591Z,94.51
2018-02-21T08:06:03.492Z,94.32
2018-02-21T08:07:03.482Z,94.32
2018-02-21T08:08:03.460Z,94.23
2018-02-21T08:09:03.193Z,94.98
2018-02-21T08:10:03.179Z,94.89
2018-02-21T08:11:03.421Z,94.89
2018-02-21T08:12:03.150Z,94.7
2018-02-21T08:13:03.134Z,94.32
2018-02-21T08:14:03.447Z,94.42
2018-02-21T08:15:03.369Z,93.94
2018-02-21T08:16:03.352Z,94.42
2018-02-21T08:17:03.332Z,94.23
2018-02-21T08:18:03.318Z,94.13
2018-02-21T08:19:03.300Z,94.32
2018-02-21T08:20:03.287Z,94.32
2018-02-21T08:21:03.271Z,94.13
2018-02-21T08:22:03.259Z,93.56
2018-02-21T08:23:03.249Z,93.56
2018-02-21T08:24:02.972Z,94.13
2018-02-21T08:25:02.955Z,94.13
2018-02-21T08:26:02.941Z,94.23
2018-02-21T08:27:03.183Z,94.23
2018-02-21T08:28:02.921Z,94.79
2018-02-21T08:29:02.900Z,94.79
2018-02-21T08:30:02.882Z,94.79
2018-02-21T08:31:02.864Z,94.79
2018-02-21T08:32:03.116Z,94.51
2018-02-21T08:33:03.089Z,94.51
2018-02-21T08:34:02.821Z,95.17
2018-02-21T08:35:03.072Z,94.79
2018-02-21T08:36:02.789Z,94.89
2018-02-21T08:37:02.775Z,95.45
2018-02-21T08:38:02.760Z,95.07
2018-02-21T08:39:03.002Z,95.17
2018-02-21T08:40:02.728Z,95.55
2018-02-21T08:41:02.715Z,95.45
2018-02-21T08:42:02.961Z,95.45
2018-02-21T08:43:02.936Z,95.36
2018-02-21T08:44:02.680Z,95.45
2018-02-21T08:45:02.909Z,95.45
2018-02-21T08:46:02.645Z,95.55
2018-02-21T08:47:02.885Z,95.45
2018-02-21T08:48:02.865Z,95.17
2018-02-21T08:49:02.853Z,95.26
2018-02-21T08:50:02.578Z,95.55
2018-02-21T08:51:02.826Z,95.17
2018-02-21T08:52:02.864Z,94.74
2018-02-21T08:53:02.798Z,94.37
2018-02-21T08:54:02.520Z,93.99
2018-02-21T08:55:02.768Z,93.89
2018-02-21T08:56:02.742Z,93.94
2018-02-21T08:57:02.727Z,94.37
2018-02-21T08:58:02.708Z,94.08
2018-02-21T08:59:02.706Z,94.37
2018-02-21T09:00:02.433Z,94.08
2018-02-21T09:01:02.668Z,94.37
2018-02-21T09:02:02.398Z,94.18
2018-02-21T09:03:02.378Z,93.89
2018-02-21T09:04:02.390Z,93.7
2018-02-21T09:05:02.604Z,93.61
2018-02-21T09:06:02.646Z,93.61
2018-02-21T09:07:02.581Z,93.89
2018-02-21T09:08:02.309Z,93.7
2018-02-21T09:09:02.548Z,93.51
2018-02-21T09:10:02.541Z,93.51
2018-02-21T09:11:02.528Z,93.61
2018-02-21T09:12:02.246Z,93.42
2018-02-21T09:13:02.236Z,93.61
2018-02-21T09:14:02.526Z,93.51
2018-02-21T09:15:02.456Z,93.8
2018-02-21T09:16:02.443Z,93.61
2018-02-21T09:17:02.423Z,93.32
2018-02-21T09:18:02.412Z,93.32
2018-02-21T09:19:02.144Z,93.13
2018-02-21T09:20:02.385Z,92.76
2018-02-21T09:21:02.107Z,92.85
2018-02-21T09:22:02.353Z,92.76
2018-02-21T09:23:02.332Z,92.76
2018-02-21T09:24:02.336Z,92.1
2018-02-21T09:25:02.050Z,92.29
2018-02-21T09:26:02.038Z,92.29
2018-02-21T09:27:02.278Z,92.29
2018-02-21T09:28:02.268Z,92
2018-02-21T09:29:02.254Z,92.47
2018-02-21T09:30:02.229Z,92.38
2018-02-21T09:31:02.215Z,92.29
2018-02-21T09:32:02.218Z,92.71
2018-02-21T09:33:02.192Z,91.95
2018-02-21T09:34:01.915Z,91.62
2018-02-21T09:35:02.156Z,91.76
2018-02-21T09:36:02.141Z,91.95
2018-02-21T09:37:02.213Z,91.95
2018-02-21T09:38:02.124Z,91.19
2018-02-21T09:39:02.097Z,91.48
2018-02-21T09:40:02.083Z,91.29
2018-02-21T09:41:01.813Z,91.57
2018-02-21T09:42:02.052Z,91
2018-02-21T09:43:01.782Z,90.63
2018-02-21T09:44:02.025Z,90.44
2018-02-21T09:45:02.009Z,90.06
2018-02-21T09:46:02.005Z,90.25
2018-02-21T09:47:01.986Z,90.44
2018-02-21T09:48:01.966Z,90.06
2018-02-21T09:49:01.951Z,90.44
2018-02-21T09:50:01.687Z,90.44
2018-02-21T09:51:02.176Z,89.58
2018-02-21T09:52:01.905Z,89.91
2018-02-21T09:53:01.892Z,90.2
2018-02-21T09:54:01.898Z,90.01
2018-02-21T09:55:01.868Z,89.34
2018-02-21T09:56:01.853Z,89.15
2018-02-21T09:57:01.836Z,88.68
2018-02-21T09:58:01.822Z,88.21
2018-02-21T09:59:01.555Z,88.59
2018-02-21T10:00:01.795Z,88.21
2018-02-21T10:01:01.833Z,88.68
2018-02-21T10:02:01.770Z,88.11
2018-02-21T10:03:01.759Z,87.73
2018-02-21T10:04:01.737Z,87.45
2018-02-21T10:05:01.722Z,87.45
2018-02-21T10:06:01.709Z,87.16
2018-02-21T10:07:01.693Z,87.16
2018-02-21T10:08:01.681Z,87.07
2018-02-21T10:09:01.667Z,87.45
2018-02-21T10:10:01.652Z,87.16
2018-02-21T10:11:01.385Z,87.3
2018-02-21T10:12:01.624Z,86.74
2018-02-21T10:13:01.616Z,86.16
2018-02-21T10:14:01.599Z,85.22
2018-02-21T10:15:01.582Z,85.22
2018-02-21T10:16:01.570Z,85.5
2018-02-21T10:17:01.559Z,85.03
2018-02-21T10:18:01.548Z,85.13
2018-02-21T10:19:01.277Z,84.65
2018-02-21T10:20:01.560Z,84.36
2018-02-21T10:21:01.518Z,84.17
2018-02-21T10:22:01.503Z,84.08
2018-02-21T10:23:01.481Z,83.84
2018-02-21T10:24:01.471Z,84.12
2018-02-21T10:25:01.199Z,82.98
2018-02-21T10:26:01.460Z,81.94
2018-02-21T10:27:01.433Z,81.56
2018-02-21T10:28:01.421Z,80.99
2018-02-21T10:29:01.403Z,81.85
2018-02-21T10:30:01.385Z,81.47
2018-02-21T10:31:01.372Z,82.13
2018-02-21T10:32:01.361Z,81.37
2018-02-21T10:33:01.344Z,81.66
2018-02-21T10:34:01.350Z,81.66
2018-02-21T10:35:01.060Z,81.75
2018-02-21T10:36:01.304Z,81.94
2018-02-21T10:37:01.289Z,80.65
2018-02-21T10:38:01.281Z,79.42
2018-02-21T10:39:01.268Z,79.04
2018-02-21T10:40:01.256Z,78.95
2018-02-21T10:41:01.245Z,78.28
2018-02-21T10:42:01.241Z,77.43
2018-02-21T10:43:01.218Z,76.57
2018-02-21T10:44:01.205Z,77.05
2018-02-21T10:45:01.198Z,77.14
2018-02-21T10:46:01.176Z,77.24
2018-02-21T10:47:01.172Z,77.14
2018-02-21T10:48:01.154Z,76.57
2018-02-21T10:49:01.161Z,76.1
2018-02-21T10:50:01.140Z,75.91
2018-02-21T10:51:00.868Z,75.62
2018-02-21T10:52:01.143Z,75.19
2018-02-21T10:53:00.877Z,74.05
2018-02-21T10:54:01.184Z,73.19
2018-02-21T10:55:01.080Z,73.19
2018-02-21T10:56:00.802Z,72.63
2018-02-21T10:57:00.794Z,72.34
2018-02-21T10:58:00.781Z,72.21
2018-02-21T10:59:01.027Z,72.49
2018-02-21T11:00:01.017Z,72.68
2018-02-21T11:01:00.996Z,72.3
2018-02-21T11:02:00.729Z,72.49
2018-02-21T11:03:00.720Z,72.68
2018-02-21T11:04:00.961Z,72.4
2018-02-21T11:05:00.960Z,72.53
2018-02-21T11:06:00.940Z,72.25
2018-02-21T11:07:00.686Z,71.67
2018-02-21T11:08:00.939Z,71.48
2018-02-21T11:09:00.916Z,71.11
2018-02-21T11:10:00.892Z,71.01
2018-02-21T11:11:00.922Z,70.44
2018-02-21T11:12:00.876Z,70.57
2018-02-21T11:13:00.598Z,68.58
2018-02-21T11:14:00.844Z,66.49
2018-02-21T11:15:00.831Z,65.35
2018-02-21T11:16:00.825Z,66.01
2018-02-21T11:17:00.809Z,66.11
2018-02-21T11:18:00.871Z,66.96
2018-02-21T11:19:00.793Z,65.82
2018-02-21T11:20:00.787Z,65.22
2018-02-21T11:21:00.508Z,65.16
2018-02-21T11:22:00.752Z,64.78
2018-02-21T11:23:00.740Z,65.25
2018-02-21T11:24:01.178Z,65.35
2018-02-21T11:25:00.719Z,65.35
2018-02-21T11:26:00.723Z,65.06
2018-02-21T11:27:00.703Z,64.69
2018-02-21T11:28:00.708Z,62.97
2018-02-21T11:29:00.674Z,62.97
2018-02-21T11:30:00.663Z,62.59
2018-02-21T11:31:00.649Z,61.71
2018-02-21T11:32:00.642Z,61.99
2018-02-21T11:33:00.637Z,61.99
2018-02-21T11:34:00.616Z,61.61
2018-02-21T11:35:00.603Z,61.99
2018-02-21T11:36:00.598Z,61.71
2018-02-21T11:37:00.604Z,61.87
2018-02-21T11:38:00.624Z,61.68
2018-02-21T11:39:00.307Z,61.87
2018-02-21T11:40:00.549Z,61.2
2018-02-21T11:41:00.541Z,61.96
2018-02-21T11:42:00.528Z,61.96
2018-02-21T11:43:00.518Z,62.43
2018-02-21T11:44:00.249Z,62.15
2018-02-21T11:45:00.491Z,61.27
2018-02-21T11:46:00.483Z,61.83
2018-02-21T11:47:00.467Z,62.5
2018-02-21T11:48:00.457Z,62.5
2018-02-21T11:49:00.442Z,63.35
2018-02-21T11:50:00.429Z,63.82
2018-02-21T11:51:00.421Z,63.45
2018-02-21T11:52:00.411Z,62.97
2018-02-21T11:53:00.146Z,62.88
2018-02-21T11:54:00.632Z,62.59
2018-02-21T11:55:00.372Z,62.12
2018-02-21T11:56:00.358Z,62.5
2018-02-21T11:57:00.347Z,62.69
2018-02-21T11:58:00.343Z,62.78
2018-02-21T11:59:00.323Z,62.31
2018-02-21T12:00:00.306Z,61.08
2018-02-21T12:01:00.294Z,60.98
2018-02-21T12:02:00.282Z,61.27
2018-02-21T12:03:00.020Z,61.83
2018-02-21T12:04:00.260Z,61.74
2018-02-21T12:05:00.259Z,61.46
2018-02-21T12:06:00.237Z,60.79
2018-02-21T12:07:00.223Z,61.55
2018-02-21T12:08:00.207Z,61.74
2018-02-21T12:09:00.206Z,61.36
2018-02-21T12:10:00.186Z,61.17
2018-02-21T12:11:00.171Z,61.46
2018-02-21T12:12:00.164Z,60.79
2018-02-21T12:13:00.167Z,61.55
2018-02-21T12:14:00.137Z,60.89
2018-02-21T12:15:00.123Z,61.83
2018-02-21T12:16:00.123Z,61.36
2018-02-21T12:17:00.122Z,61.17
2018-02-21T12:18:00.099Z,60.79
2018-02-21T12:19:00.074Z,60.89
2018-02-21T12:19:59.802Z,61.08
2018-02-21T12:20:59.791Z,61.65
2018-02-21T12:21:59.787Z,61.74
2018-02-21T12:23:00.022Z,61.2
2018-02-21T12:24:00.013Z,61.01
2018-02-21T12:24:59.741Z,60.44
2018-02-21T12:25:59.989Z,60.73
2018-02-21T12:26:59.982Z,61.2
2018-02-21T12:27:59.952Z,59.71
2018-02-21T12:28:59.963Z,59.43
2018-02-21T12:29:59.693Z,58.67
2018-02-21T12:30:59.956Z,59.43
2018-02-21T12:31:59.947Z,58.86
2018-02-21T12:32:59.924Z,58.48
2018-02-21T12:33:59.642Z,57.34
2018-02-21T12:34:59.957Z,56.29
2018-02-21T12:35:59.870Z,56.13
2018-02-21T12:36:59.878Z,56.23
2018-02-21T12:37:59.858Z,56.32
2018-02-21T12:38:59.866Z,56.32
2018-02-21T12:39:59.845Z,56.61
2018-02-21T12:40:59.814Z,56.13
2018-02-21T12:41:59.817Z,55.57
2018-02-21T12:42:59.816Z,55.85
2018-02-21T12:43:59.794Z,55.57
2018-02-21T12:44:59.783Z,55.47
2018-02-21T12:45:59.778Z,55.37
2018-02-21T12:46:59.765Z,55.47
2018-02-21T12:47:59.482Z,55.47
2018-02-21T12:48:59.738Z,55.47
2018-02-21T12:49:59.713Z,55.47
2018-02-21T12:50:59.716Z,55.85
2018-02-21T12:51:59.696Z,56.32
2018-02-21T12:52:59.715Z,56.89
2018-02-21T12:53:59.417Z,56.61